createdAt,value
2022-10-11T00:00:33.945Z,7.97
2022-10-11T00:03:36.915Z,8.23
2022-10-11T00:06:39.808Z,7.83
2022-10-11T00:09:42.817Z,7.97
2022-10-11T00:12:46.596Z,7.53
2022-10-11T00:15:49.952Z,7.37
2022-10-11T00:18:52.636Z,8.27
2022-10-11T00:21:55.525Z,9.00
2022-10-11T00:24:59.357Z,7.90
2022-10-11T00:28:02.292Z,7.50
2022-10-11T00:31:13.625Z,7.68
2022-10-11T00:34:18.255Z,8.55
2022-10-11T00:37:21.008Z,8.40
2022-10-11T00:40:24.874Z,9.13
2022-10-11T00:43:29.953Z,7.90
2022-10-11T00:46:33.116Z,8.20
2022-10-11T00:49:44.215Z,7.97
2022-10-11T00:52:54.853Z,8.17
2022-10-11T00:56:12.691Z,8.17
2022-10-11T00:59:21.859Z,8.15
2022-10-11T01:02:25.123Z,8.85
2022-10-11T01:05:30.124Z,8.23
2022-10-11T01:08:34.181Z,9.00
2022-10-11T01:11:41.543Z,8.10
2022-10-11T01:14:56.097Z,8.73
2022-10-11T01:18:22.984Z,8.57
2022-10-11T01:21:49.045Z,8.73
2022-10-11T01:25:13.206Z,8.67
2022-10-11T01:28:40.497Z,8.63
2022-10-11T01:31:54.145Z,7.78
2022-10-11T01:35:06.998Z,8.55
2022-10-11T01:38:31.703Z,8.32
2022-10-11T01:41:39.438Z,8.10
2022-10-11T01:44:46.114Z,8.17
2022-10-11T01:48:01.616Z,8.43
2022-10-11T01:51:04.736Z,8.02
2022-10-11T01:54:10.159Z,8.15
2022-10-11T01:57:31.249Z,8.33
2022-10-11T02:00:52.589Z,8.33
2022-10-11T02:04:08.115Z,8.35
2022-10-11T02:07:37.765Z,8.77
2022-10-11T02:10:50.934Z,9.20
2022-10-11T02:14:02.111Z,9.10
2022-10-11T02:17:13.076Z,8.43
2022-10-11T02:20:21.130Z,9.70
2022-10-11T02:23:32.721Z,11.07
2022-10-11T02:26:37.384Z,10.02
2022-10-11T02:29:43.937Z,9.37
2022-10-11T02:32:49.245Z,10.03
2022-10-11T02:35:58.702Z,8.25
2022-10-11T02:39:08.489Z,9.75
2022-10-11T02:42:23.954Z,9.52
2022-10-11T02:45:42.281Z,9.40
2022-10-11T02:48:45.161Z,9.17
2022-10-11T02:51:47.780Z,9.13
2022-10-11T02:54:50.758Z,8.23
2022-10-11T02:57:54.430Z,8.02
2022-10-11T03:00:57.411Z,7.83
2022-10-11T03:04:02.410Z,8.70
2022-10-11T03:07:05.591Z,9.70
2022-10-11T03:10:10.359Z,9.63
2022-10-11T03:13:18.157Z,10.15
2022-10-11T03:16:21.559Z,9.10
2022-10-11T03:19:24.452Z,9.80
2022-10-11T03:22:27.087Z,9.60
2022-10-11T03:25:30.098Z,9.20
2022-10-11T03:28:32.706Z,8.55
2022-10-11T03:31:35.802Z,8.93
2022-10-11T03:34:38.399Z,15.87
2022-10-11T03:37:41.327Z,21.67
2022-10-11T03:40:44.378Z,17.27
2022-10-11T03:43:47.315Z,17.77
2022-10-11T03:46:49.945Z,23.57
2022-10-11T03:49:53.289Z,23.13
2022-10-11T03:52:55.989Z,16.35
2022-10-11T03:55:58.908Z,21.20
2022-10-11T03:59:02.389Z,20.17
2022-10-11T04:02:05.425Z,24.63
2022-10-11T04:05:08.707Z,20.67
2022-10-11T04:08:12.481Z,16.33
2022-10-11T04:11:16.122Z,13.98
2022-10-11T04:14:18.794Z,14.00
2022-10-11T04:17:22.193Z,13.70
2022-10-11T04:20:24.943Z,14.10
2022-10-11T04:23:28.125Z,15.00
2022-10-11T04:26:31.121Z,23.98
2022-10-11T04:29:34.149Z,16.73
2022-10-11T04:32:36.982Z,24.13
2022-10-11T04:35:40.296Z,19.93
2022-10-11T04:38:43.021Z,16.58
2022-10-11T04:41:46.118Z,12.15
2022-10-11T04:44:48.948Z,13.15
2022-10-11T04:47:51.919Z,14.97
2022-10-11T04:50:54.659Z,14.37
2022-10-11T04:53:57.632Z,13.62
2022-10-11T04:57:00.422Z,18.52
2022-10-11T05:00:05.070Z,15.98
2022-10-11T05:03:07.739Z,14.23
2022-10-11T05:06:11.337Z,14.00
2022-10-11T05:09:14.396Z,13.15
2022-10-11T05:12:17.752Z,11.82
2022-10-11T05:15:20.480Z,10.35
2022-10-11T05:18:24.327Z,10.10
2022-10-11T05:21:28.860Z,11.90
2022-10-11T05:24:31.923Z,12.02
2022-10-11T05:27:34.670Z,11.32
2022-10-11T05:30:37.694Z,12.13
2022-10-11T05:33:41.024Z,11.43
2022-10-11T05:36:45.139Z,12.67
2022-10-11T05:39:47.701Z,11.70
2022-10-11T05:42:50.603Z,12.20
2022-10-11T05:45:53.248Z,11.38
2022-10-11T05:48:56.234Z,12.17
2022-10-11T05:51:59.310Z,13.60
2022-10-11T05:55:03.749Z,12.75
2022-10-11T05:58:07.946Z,12.15
2022-10-11T06:01:27.701Z,12.57
2022-10-11T06:04:31.444Z,13.50
2022-10-11T06:07:36.634Z,11.83
2022-10-11T06:10:40.613Z,11.57
2022-10-11T06:13:44.524Z,12.02
2022-10-11T06:16:47.485Z,19.33
2022-10-11T06:19:51.189Z,13.97
2022-10-11T06:22:54.963Z,12.33
2022-10-11T06:26:07.323Z,11.52
2022-10-11T06:29:10.931Z,13.02
2022-10-11T06:32:13.609Z,15.10
2022-10-11T06:35:18.025Z,17.93
2022-10-11T06:38:21.864Z,18.50
2022-10-11T06:41:27.324Z,14.55
2022-10-11T06:44:30.037Z,19.25
2022-10-11T06:47:32.979Z,15.27
2022-10-11T06:50:58.486Z,13.40
2022-10-11T06:54:03.894Z,13.07
2022-10-11T06:57:06.557Z,12.98
2022-10-11T07:00:12.834Z,11.95
2022-10-11T07:03:15.638Z,11.57
2022-10-11T07:06:21.090Z,11.80
2022-10-11T07:09:23.842Z,11.80
2022-10-11T07:12:26.776Z,11.93
2022-10-11T07:15:29.470Z,11.00
2022-10-11T07:18:33.028Z,10.85
2022-10-11T07:21:38.624Z,11.20
2022-10-11T07:24:41.521Z,9.60
2022-10-11T07:27:44.141Z,10.10
2022-10-11T07:30:47.643Z,9.80
2022-10-11T07:33:50.262Z,9.20
2022-10-11T07:36:53.218Z,8.60
2022-10-11T07:39:57.081Z,9.33
2022-10-11T07:43:01.068Z,8.88
2022-10-11T07:46:05.916Z,9.57
2022-10-11T07:49:09.118Z,9.60
2022-10-11T07:52:12.937Z,9.57
2022-10-11T07:55:16.305Z,9.03
2022-10-11T07:58:18.855Z,9.88
2022-10-11T08:01:22.425Z,11.25
2022-10-11T08:04:25.487Z,10.60
2022-10-11T08:07:29.950Z,9.37
2022-10-11T08:10:38.941Z,9.40
2022-10-11T08:13:41.689Z,8.98
2022-10-11T08:16:44.988Z,8.77
2022-10-11T08:19:47.728Z,9.27
2022-10-11T08:22:50.665Z,9.30
2022-10-11T08:25:58.312Z,9.00
2022-10-11T08:29:05.409Z,9.30
2022-10-11T08:32:12.093Z,8.85
2022-10-11T08:35:17.560Z,10.00
2022-10-11T08:38:21.490Z,8.80
2022-10-11T08:41:33.585Z,9.57
2022-10-11T08:48:18.731Z,8.90
2022-10-11T08:51:27.738Z,8.50
2022-10-11T08:54:44.699Z,8.47
2022-10-11T08:57:53.965Z,8.67
2022-10-11T09:00:58.141Z,8.20
2022-10-11T09:04:00.800Z,8.00
2022-10-11T09:07:40.912Z,9.20
2022-10-11T09:10:46.307Z,8.47
2022-10-11T09:14:01.320Z,8.90
2022-10-11T09:17:09.896Z,8.73
2022-10-11T09:20:15.646Z,9.02
2022-10-11T09:23:40.141Z,8.70
2022-10-11T09:26:56.885Z,8.07
2022-10-11T09:30:16.638Z,8.90
2022-10-11T09:33:34.909Z,9.25
2022-10-11T09:37:02.007Z,8.93
2022-10-11T09:40:11.051Z,7.68
2022-10-11T09:43:14.874Z,8.00
2022-10-11T09:46:41.317Z,7.80
2022-10-11T09:49:58.991Z,7.65
2022-10-11T09:53:07.988Z,7.45
2022-10-11T09:56:11.418Z,7.60
2022-10-11T09:59:35.292Z,7.50
2022-10-11T10:02:47.693Z,6.90
2022-10-11T10:06:05.568Z,7.22
2022-10-11T10:09:31.156Z,6.97
2022-10-11T10:12:34.392Z,7.00
2022-10-11T10:15:45.340Z,7.57
2022-10-11T10:19:16.041Z,6.97
2022-10-11T10:22:30.221Z,8.75
2022-10-11T10:25:42.304Z,8.48
2022-10-11T10:29:15.016Z,6.57
2022-10-11T10:32:28.120Z,6.43
2022-10-11T10:35:46.361Z,7.60
2022-10-11T10:38:59.772Z,6.72
2022-10-11T10:42:05.351Z,6.45
2022-10-11T10:45:20.077Z,7.55
2022-10-11T10:48:53.762Z,8.43
2022-10-11T10:52:28.022Z,6.60
2022-10-11T10:55:46.699Z,7.03
2022-10-11T10:59:19.872Z,7.37
2022-10-11T11:02:40.271Z,6.53
2022-10-11T11:05:52.780Z,6.93
2022-10-11T11:09:07.150Z,6.70
2022-10-11T11:12:24.516Z,6.70
2022-10-11T11:16:00.100Z,6.72
2022-10-11T11:19:03.572Z,7.40
2022-10-11T11:22:15.137Z,6.87
2022-10-11T11:25:27.577Z,6.50
2022-10-11T11:28:45.501Z,7.18
2022-10-11T11:32:19.436Z,6.78
2022-10-11T11:35:31.499Z,6.95
2022-10-11T11:39:09.826Z,6.37
2022-10-11T11:42:21.336Z,6.80
2022-10-11T11:45:33.826Z,8.18
2022-10-11T11:48:38.979Z,6.65
2022-10-11T11:51:45.531Z,7.35
2022-10-11T11:55:04.003Z,6.40
2022-10-11T11:58:16.303Z,6.23
2022-10-11T12:01:21.540Z,6.60
2022-10-11T12:04:36.140Z,6.85
2022-10-11T12:08:01.599Z,6.90
2022-10-11T12:11:05.025Z,7.07
2022-10-11T12:14:35.059Z,7.03
2022-10-11T12:17:59.353Z,7.78
2022-10-11T12:21:09.647Z,7.12
2022-10-11T12:24:23.419Z,8.00
2022-10-11T12:27:44.584Z,7.00
2022-10-11T12:30:47.396Z,7.53
2022-10-11T12:33:54.904Z,7.57
2022-10-11T12:37:04.531Z,7.70
2022-10-11T12:40:42.043Z,7.25
2022-10-11T12:43:50.692Z,7.10
2022-10-11T12:46:54.609Z,7.20
2022-10-11T12:50:11.879Z,7.22
2022-10-11T12:54:02.278Z,6.10
2022-10-11T12:57:46.591Z,7.07
2022-10-11T13:00:52.630Z,7.17
2022-10-11T13:04:03.775Z,6.63
2022-10-11T13:07:15.239Z,6.55
2022-10-11T13:10:25.231Z,6.65
2022-10-11T13:13:33.667Z,7.30
2022-10-11T13:16:48.837Z,7.37
2022-10-11T13:20:00.613Z,7.00
2022-10-11T13:23:03.566Z,7.18
2022-10-11T13:26:08.128Z,7.07
2022-10-11T13:29:18.518Z,7.45
2022-10-11T13:32:27.529Z,7.00
2022-10-11T13:35:35.473Z,7.20
2022-10-11T13:38:38.133Z,6.95
2022-10-11T13:41:42.310Z,6.50
2022-10-11T13:44:46.533Z,6.82
2022-10-11T13:47:51.708Z,6.40
2022-10-11T13:51:06.799Z,6.50
2022-10-11T13:54:13.470Z,7.12
2022-10-11T13:57:16.717Z,6.10
2022-10-11T14:00:28.725Z,6.28
2022-10-11T14:03:47.979Z,6.47
2022-10-11T14:07:02.789Z,6.53
2022-10-11T14:10:07.429Z,6.00
2022-10-11T14:13:46.588Z,5.37
2022-10-11T14:17:05.323Z,5.72
2022-10-11T14:20:17.016Z,6.03
2022-10-11T14:23:21.285Z,6.43
2022-10-11T14:26:25.717Z,5.45
2022-10-11T14:29:33.695Z,5.35
2022-10-11T14:32:36.720Z,7.10
2022-10-11T14:35:42.479Z,6.40
2022-10-11T14:38:47.420Z,7.57
2022-10-11T14:41:51.425Z,8.48
2022-10-11T14:44:54.361Z,10.35
2022-10-11T14:47:57.401Z,8.27
2022-10-11T14:51:03.282Z,7.80
2022-10-11T14:54:06.954Z,8.53
2022-10-11T14:57:12.494Z,6.75
2022-10-11T15:00:20.813Z,6.40
2022-10-11T15:03:23.356Z,9.13
2022-10-11T15:06:30.286Z,9.03
2022-10-11T15:09:32.946Z,8.80
2022-10-11T15:12:37.463Z,8.98
2022-10-11T15:15:43.882Z,9.88
2022-10-11T15:18:52.125Z,11.82
2022-10-11T15:21:54.852Z,9.63
2022-10-11T15:25:00.430Z,8.80
2022-10-11T15:28:03.502Z,12.73
2022-10-11T15:31:06.518Z,10.93
2022-10-11T15:34:09.251Z,10.60
2022-10-11T15:37:12.296Z,9.47
2022-10-11T15:40:22.304Z,13.37
2022-10-11T15:43:27.622Z,12.75
2022-10-11T15:46:30.457Z,21.08
2022-10-11T15:49:33.558Z,18.67
2022-10-11T15:52:37.001Z,8.77
2022-10-11T15:55:52.171Z,9.80
2022-10-11T15:58:54.743Z,12.48
2022-10-11T16:01:57.774Z,15.48
2022-10-11T16:05:00.687Z,20.30
2022-10-11T16:08:04.018Z,21.93
2022-10-11T16:11:08.878Z,11.80
2022-10-11T16:14:11.559Z,10.00
2022-10-11T16:17:14.393Z,9.50
2022-10-11T16:20:22.388Z,10.05
2022-10-11T16:23:25.379Z,10.63
2022-10-11T16:26:28.282Z,12.63
2022-10-11T16:29:31.330Z,12.30
2022-10-11T16:32:34.563Z,12.95
2022-10-11T16:35:43.100Z,11.93
2022-10-11T16:38:45.698Z,16.50
2022-10-11T16:41:48.697Z,17.00
2022-10-11T16:44:51.561Z,21.73
2022-10-11T16:47:54.481Z,19.62
2022-10-11T16:51:05.610Z,20.83
2022-10-11T16:54:08.534Z,18.83
2022-10-11T16:57:12.870Z,18.07
2022-10-11T17:00:16.751Z,19.42
2022-10-11T17:03:19.438Z,19.02
2022-10-11T17:06:23.121Z,20.05
2022-10-11T17:09:26.203Z,18.80
2022-10-11T17:12:29.513Z,20.23
2022-10-11T17:15:32.117Z,21.17
2022-10-11T17:18:35.169Z,20.05
2022-10-11T17:21:38.492Z,19.67
2022-10-11T17:24:41.486Z,19.73
2022-10-11T17:27:44.077Z,18.77
2022-10-11T17:30:55.459Z,19.12
2022-10-11T17:34:00.182Z,18.33
2022-10-11T17:37:03.633Z,19.23
2022-10-11T17:40:06.770Z,18.93
2022-10-11T17:43:10.760Z,17.67
2022-10-11T17:46:15.655Z,16.87
2022-10-11T17:49:18.860Z,15.63
2022-10-11T17:52:21.628Z,15.95
2022-10-11T17:55:24.514Z,15.97
2022-10-11T17:58:28.859Z,15.63
2022-10-11T18:01:32.563Z,15.07
2022-10-11T18:04:35.897Z,21.35
2022-10-11T18:07:38.597Z,18.40
2022-10-11T18:10:46.725Z,16.13
2022-10-11T18:13:52.136Z,17.87
2022-10-11T18:16:56.561Z,16.90
2022-10-11T18:20:00.611Z,19.35
2022-10-11T18:23:05.094Z,22.85
2022-10-11T18:26:13.547Z,21.67
2022-10-11T18:29:18.031Z,23.90
2022-10-11T18:32:21.109Z,23.38
2022-10-11T18:35:24.290Z,21.92
2022-10-11T18:38:27.059Z,23.33
2022-10-11T18:41:34.200Z,20.23
2022-10-11T18:44:37.010Z,24.63
2022-10-11T18:47:40.303Z,23.75
2022-10-11T18:50:43.259Z,26.42
2022-10-11T18:53:47.300Z,29.25
2022-10-11T18:56:51.812Z,30.93
2022-10-11T18:59:55.134Z,31.47
2022-10-11T19:02:57.792Z,32.28
2022-10-11T19:06:18.405Z,31.48
2022-10-11T19:09:25.432Z,29.77
2022-10-11T19:12:28.527Z,29.03
2022-10-11T19:15:33.651Z,26.27
2022-10-11T19:18:41.701Z,27.85
2022-10-11T19:21:49.262Z,25.25
2022-10-11T19:24:52.588Z,22.60
2022-10-11T19:27:55.725Z,22.93
2022-10-11T19:31:10.021Z,20.53
2022-10-11T19:34:15.943Z,20.65
2022-10-11T19:37:20.268Z,19.73
2022-10-11T19:40:23.097Z,19.95
2022-10-11T19:43:26.168Z,21.03
2022-10-11T19:46:50.348Z,19.70
2022-10-11T19:49:52.447Z,18.37
2022-10-11T19:52:55.105Z,19.25
2022-10-11T19:56:10.323Z,18.05
2022-10-11T19:59:13.728Z,19.30
2022-10-11T20:02:17.944Z,19.37
2022-10-11T20:05:21.723Z,17.90
2022-10-11T20:08:24.340Z,15.90
2022-10-11T20:11:27.632Z,18.25
2022-10-11T20:14:30.487Z,16.60
2022-10-11T20:17:51.338Z,17.73
2022-10-11T20:20:55.981Z,16.42
2022-10-11T20:24:04.141Z,16.15
2022-10-11T20:27:06.910Z,16.75
2022-10-11T20:30:11.292Z,18.23
2022-10-11T20:33:13.851Z,17.80
2022-10-11T20:36:19.569Z,17.95
2022-10-11T20:39:22.160Z,15.55
2022-10-11T20:42:29.698Z,15.73
2022-10-11T20:45:32.691Z,16.80
2022-10-11T20:48:37.019Z,17.97
2022-10-11T20:51:42.009Z,17.62
2022-10-11T20:54:44.899Z,17.48
2022-10-11T20:57:48.287Z,16.75
2022-10-11T21:00:52.145Z,17.53
2022-10-11T21:03:57.291Z,18.60
2022-10-11T21:07:00.194Z,17.50
2022-10-11T21:10:02.785Z,17.77
2022-10-11T21:13:05.833Z,17.35
2022-10-11T21:16:13.560Z,18.40
2022-10-11T21:19:16.488Z,17.70
2022-10-11T21:22:19.485Z,17.90
2022-10-11T21:25:22.411Z,17.10
2022-10-11T21:28:25.135Z,17.42
2022-10-11T21:31:32.881Z,19.53
2022-10-11T21:34:36.734Z,17.73
2022-10-11T21:37:39.831Z,17.67
2022-10-11T21:40:42.553Z,16.15
2022-10-11T21:43:47.731Z,17.08
2022-10-11T21:47:07.384Z,17.47
2022-10-11T21:50:10.916Z,18.33
2022-10-11T21:53:14.836Z,17.55
2022-10-11T21:56:18.432Z,18.42
2022-10-11T21:59:21.084Z,18.83
2022-10-11T22:02:25.574Z,17.50
2022-10-11T22:05:28.438Z,18.57
2022-10-11T22:08:31.604Z,19.27
2022-10-11T22:11:34.833Z,18.87
2022-10-11T22:14:37.433Z,18.52
2022-10-11T22:17:40.313Z,19.13
2022-10-11T22:20:42.984Z,18.03
2022-10-11T22:23:48.664Z,19.80
2022-10-11T22:26:51.255Z,18.15
2022-10-11T22:29:54.084Z,19.80
2022-10-11T22:32:57.121Z,17.57
2022-10-11T22:36:01.906Z,19.17
2022-10-11T22:39:08.397Z,19.12
2022-10-11T22:42:11.546Z,19.52
2022-10-11T22:45:14.119Z,18.52
2022-10-11T22:48:17.069Z,19.47
2022-10-11T22:51:20.659Z,18.90
2022-10-11T22:54:23.684Z,19.30
2022-10-11T22:57:26.280Z,17.73
2022-10-11T23:00:29.312Z,18.70
2022-10-11T23:03:32.697Z,19.57
2022-10-11T23:06:35.700Z,19.67
2022-10-11T23:09:38.262Z,19.20
2022-10-11T23:12:41.322Z,18.48
2022-10-11T23:15:43.944Z,18.67
2022-10-11T23:18:46.796Z,19.00
2022-10-11T23:21:49.535Z,19.57
2022-10-11T23:24:53.562Z,18.37
2022-10-11T23:27:56.183Z,19.02
2022-10-11T23:30:59.136Z,18.30
2022-10-11T23:34:01.734Z,19.00
2022-10-11T23:37:05.409Z,17.83
2022-10-11T23:40:11.330Z,17.67
2022-10-11T23:43:14.350Z,17.25
2022-10-11T23:46:17.092Z,17.62
2022-10-11T23:49:19.946Z,17.57
2022-10-11T23:52:22.539Z,17.67
2022-10-11T23:55:25.435Z,17.30
2022-10-11T23:58:28.074Z,19.35
